sensor_id;sensor_type;location;lat;lon;timestamp;pressure;altitude;pressure_sealevel;temperature;humidity
78665;BME280;67981;51.022;-2.870;2023-05-07T00:00:52;101037.84;;;11.31;100.00
78665;BME280;67981;51.022;-2.870;2023-05-07T00:03:18;101054.41;;;11.38;99.54
78665;BME280;67981;51.022;-2.870;2023-05-07T00:05:44;101042.47;;;11.41;99.49
78665;BME280;67981;51.022;-2.870;2023-05-07T00:08:09;101045.72;;;11.36;99.55
78665;BME280;67981;51.022;-2.870;2023-05-07T00:10:35;101045.69;;;11.34;99.50
78665;BME280;67981;51.022;-2.870;2023-05-07T00:13:00;101053.47;;;11.36;99.33
78665;BME280;67981;51.022;-2.870;2023-05-07T00:15:26;101044.75;;;11.32;99.14
78665;BME280;67981;51.022;-2.870;2023-05-07T00:17:51;101043.03;;;11.31;99.42
78665;BME280;67981;51.022;-2.870;2023-05-07T00:20:16;101049.97;;;11.34;99.49
78665;BME280;67981;51.022;-2.870;2023-05-07T00:22:42;101046.53;;;11.33;99.24
78665;BME280;67981;51.022;-2.870;2023-05-07T00:25:07;101051.75;;;11.35;99.29
78665;BME280;67981;51.022;-2.870;2023-05-07T00:27:33;101040.38;;;11.28;99.09
78665;BME280;67981;51.022;-2.870;2023-05-07T00:29:58;101058.66;;;11.36;99.35
78665;BME280;67981;51.022;-2.870;2023-05-07T00:32:24;101050.72;;;11.30;99.07
78665;BME280;67981;51.022;-2.870;2023-05-07T00:34:49;101055.00;;;11.29;99.03
78665;BME280;67981;51.022;-2.870;2023-05-07T00:37:16;101054.81;;;11.22;99.58
78665;BME280;67981;51.022;-2.870;2023-05-07T00:39:41;101052.09;;;11.17;99.97
78665;BME280;67981;51.022;-2.870;2023-05-07T00:42:06;101038.75;;;11.04;99.94
78665;BME280;67981;51.022;-2.870;2023-05-07T00:44:33;101057.91;;;11.10;100.00
78665;BME280;67981;51.022;-2.870;2023-05-07T00:47:01;101060.31;;;11.04;100.00
78665;BME280;67981;51.022;-2.870;2023-05-07T00:49:38;101067.31;;;11.08;99.98
78665;BME280;67981;51.022;-2.870;2023-05-07T00:52:06;101071.56;;;11.06;99.93
78665;BME280;67981;51.022;-2.870;2023-05-07T00:54:32;101066.03;;;10.94;99.77
78665;BME280;67981;51.022;-2.870;2023-05-07T00:56:58;101076.53;;;11.00;99.91
78665;BME280;67981;51.022;-2.870;2023-05-07T00:59:24;101069.59;;;10.98;99.72
78665;BME280;67981;51.022;-2.870;2023-05-07T01:01:49;101060.78;;;10.91;99.73
78665;BME280;67981;51.022;-2.870;2023-05-07T01:04:15;101071.00;;;10.88;99.75
78665;BME280;67981;51.022;-2.870;2023-05-07T01:06:40;101074.41;;;10.87;99.65
78665;BME280;67981;51.022;-2.870;2023-05-07T01:09:07;101071.63;;;10.81;100.00
78665;BME280;67981;51.022;-2.870;2023-05-07T01:11:34;101069.72;;;10.74;100.00
78665;BME280;67981;51.022;-2.870;2023-05-07T01:14:00;101069.63;;;10.73;99.94
78665;BME280;67981;51.022;-2.870;2023-05-07T01:16:25;101057.44;;;10.67;99.95
78665;BME280;67981;51.022;-2.870;2023-05-07T01:18:52;101064.16;;;10.62;100.00
78665;BME280;67981;51.022;-2.870;2023-05-07T01:21:17;101064.34;;;10.68;100.00
78665;BME280;67981;51.022;-2.870;2023-05-07T01:23:44;101063.31;;;10.63;100.00
78665;BME280;67981;51.022;-2.870;2023-05-07T01:26:10;101060.53;;;10.57;100.00
78665;BME280;67981;51.022;-2.870;2023-05-07T01:28:35;101075.47;;;10.66;100.00
78665;BME280;67981;51.022;-2.870;2023-05-07T01:31:03;101072.69;;;10.60;99.97
78665;BME280;67981;51.022;-2.870;2023-05-07T01:33:33;101090.09;;;10.67;100.00
78665;BME280;67981;51.022;-2.870;2023-05-07T01:36:00;101093.38;;;10.61;99.94
78665;BME280;67981;51.022;-2.870;2023-05-07T01:38:28;101092.50;;;10.61;100.00
78665;BME280;67981;51.022;-2.870;2023-05-07T01:40:55;101096.63;;;10.56;99.93
78665;BME280;67981;51.022;-2.870;2023-05-07T01:43:21;101108.66;;;10.55;100.00
78665;BME280;67981;51.022;-2.870;2023-05-07T01:45:46;101101.69;;;10.53;100.00
78665;BME280;67981;51.022;-2.870;2023-05-07T01:48:14;101107.63;;;10.50;100.00
78665;BME280;67981;51.022;-2.870;2023-05-07T01:50:41;101103.19;;;10.46;99.94
78665;BME280;67981;51.022;-2.870;2023-05-07T01:53:08;101101.22;;;10.39;100.00
78665;BME280;67981;51.022;-2.870;2023-05-07T01:55:33;101095.94;;;10.35;100.00
78665;BME280;67981;51.022;-2.870;2023-05-07T01:57:58;101094.94;;;10.31;99.90
78665;BME280;67981;51.022;-2.870;2023-05-07T02:00:25;101111.50;;;10.38;99.91
78665;BME280;67981;51.022;-2.870;2023-05-07T02:02:50;101120.69;;;10.30;100.00
78665;BME280;67981;51.022;-2.870;2023-05-07T02:05:16;101120.75;;;10.31;100.00
78665;BME280;67981;51.022;-2.870;2023-05-07T02:07:42;101122.38;;;10.28;99.91
78665;BME280;67981;51.022;-2.870;2023-05-07T02:10:07;101124.00;;;10.26;99.35
78665;BME280;67981;51.022;-2.870;2023-05-07T02:12:33;101127.53;;;10.28;99.51
78665;BME280;67981;51.022;-2.870;2023-05-07T02:14:58;101124.81;;;10.25;99.13
78665;BME280;67981;51.022;-2.870;2023-05-07T02:17:24;101120.25;;;10.16;99.33
78665;BME280;67981;51.022;-2.870;2023-05-07T02:19:49;101123.63;;;10.15;98.94
78665;BME280;67981;51.022;-2.870;2023-05-07T02:22:14;101135.72;;;10.16;99.00
78665;BME280;67981;51.022;-2.870;2023-05-07T02:24:40;101145.25;;;10.19;98.96
78665;BME280;67981;51.022;-2.870;2023-05-07T02:27:06;101144.31;;;10.17;98.69
78665;BME280;67981;51.022;-2.870;2023-05-07T02:29:31;101140.91;;;10.18;99.06
78665;BME280;67981;51.022;-2.870;2023-05-07T02:31:57;101144.09;;;10.11;99.15
78665;BME280;67981;51.022;-2.870;2023-05-07T02:34:22;101132.09;;;10.11;98.93
78665;BME280;67981;51.022;-2.870;2023-05-07T02:36:48;101150.31;;;10.16;98.91
78665;BME280;67981;51.022;-2.870;2023-05-07T02:39:13;101138.00;;;10.09;98.40
78665;BME280;67981;51.022;-2.870;2023-05-07T02:41:39;101145.59;;;10.05;98.75
78665;BME280;67981;51.022;-2.870;2023-05-07T02:44:04;101150.03;;;10.08;98.69
78665;BME280;67981;51.022;-2.870;2023-05-07T02:46:30;101155.81;;;10.02;98.75
78665;BME280;67981;51.022;-2.870;2023-05-07T02:48:56;101158.34;;;10.01;98.96
78665;BME280;67981;51.022;-2.870;2023-05-07T02:51:22;101162.44;;;9.96;99.01
78665;BME280;67981;51.022;-2.870;2023-05-07T02:53:48;101163.13;;;9.90;99.36
78665;BME280;67981;51.022;-2.870;2023-05-07T02:56:13;101163.00;;;9.87;99.39
78665;BME280;67981;51.022;-2.870;2023-05-07T02:58:39;101162.84;;;9.83;99.44
78665;BME280;67981;51.022;-2.870;2023-05-07T03:01:07;101172.28;;;9.82;99.58
78665;BME280;67981;51.022;-2.870;2023-05-07T03:03:33;101171.41;;;9.82;99.51
78665;BME280;67981;51.022;-2.870;2023-05-07T03:05:59;101164.47;;;9.81;99.10
78665;BME280;67981;51.022;-2.870;2023-05-07T03:08:25;101158.28;;;9.76;99.39
78665;BME280;67981;51.022;-2.870;2023-05-07T03:10:50;101167.19;;;9.84;99.04
78665;BME280;67981;51.022;-2.870;2023-05-07T03:13:16;101164.41;;;9.79;98.88
78665;BME280;67981;51.022;-2.870;2023-05-07T03:15:42;101163.56;;;9.79;98.84
78665;BME280;67981;51.022;-2.870;2023-05-07T03:18:07;101178.97;;;9.77;99.46
78665;BME280;67981;51.022;-2.870;2023-05-07T03:20:32;101168.47;;;9.73;99.14
78665;BME280;67981;51.022;-2.870;2023-05-07T03:22:58;101179.59;;;9.72;99.11
78665;BME280;67981;51.022;-2.870;2023-05-07T03:25:23;101190.03;;;9.75;98.82
78665;BME280;67981;51.022;-2.870;2023-05-07T03:27:49;101184.72;;;9.70;99.08
78665;BME280;67981;51.022;-2.870;2023-05-07T03:30:14;101188.75;;;9.64;99.34
78665;BME280;67981;51.022;-2.870;2023-05-07T03:32:40;101188.81;;;9.65;99.16
78665;BME280;67981;51.022;-2.870;2023-05-07T03:35:05;101189.53;;;9.61;99.10
78665;BME280;67981;51.022;-2.870;2023-05-07T03:37:31;101189.34;;;9.57;99.37
78665;BME280;67981;51.022;-2.870;2023-05-07T03:39:56;101179.69;;;9.51;99.38
78665;BME280;67981;51.022;-2.870;2023-05-07T03:42:22;101177.81;;;9.47;99.29
78665;BME280;67981;51.022;-2.870;2023-05-07T03:44:47;101186.38;;;9.46;99.51
78665;BME280;67981;51.022;-2.870;2023-05-07T03:47:13;101178.47;;;9.42;99.74
78665;BME280;67981;51.022;-2.870;2023-05-07T03:49:39;101181.72;;;9.38;99.60
78665;BME280;67981;51.022;-2.870;2023-05-07T03:52:05;101186.03;;;9.37;99.39
78665;BME280;67981;51.022;-2.870;2023-05-07T03:54:31;101181.72;;;9.38;99.80
78665;BME280;67981;51.022;-2.870;2023-05-07T03:56:56;101175.47;;;9.31;100.00
78665;BME280;67981;51.022;-2.870;2023-05-07T03:59:22;101186.66;;;9.32;100.00
78665;BME280;67981;51.022;-2.870;2023-05-07T04:01:47;101188.16;;;9.27;100.00
78665;BME280;67981;51.022;-2.870;2023-05-07T04:04:14;101192.38;;;9.25;100.00
78665;BME280;67981;51.022;-2.870;2023-05-07T04:06:40;101195.84;;;9.25;100.00
78665;BME280;67981;51.022;-2.870;2023-05-07T04:09:05;101190.50;;;9.21;100.00
78665;BME280;67981;51.022;-2.870;2023-05-07T04:11:31;101199.25;;;9.24;100.00
78665;BME280;67981;51.022;-2.870;2023-05-07T04:13:57;101190.75;;;9.27;100.00
78665;BME280;67981;51.022;-2.870;2023-05-07T04:16:22;101189.78;;;9.25;100.00
78665;BME280;67981;51.022;-2.870;2023-05-07T04:18:47;101201.41;;;9.36;100.00
78665;BME280;67981;51.022;-2.870;2023-05-07T04:21:17;101188.66;;;9.39;100.00
78665;BME280;67981;51.022;-2.870;2023-05-07T04:23:43;101201.66;;;9.42;100.00
78665;BME280;67981;51.022;-2.870;2023-05-07T04:26:08;101193.75;;;9.37;100.00
78665;BME280;67981;51.022;-2.870;2023-05-07T04:28:34;101195.66;;;9.43;99.92
78665;BME280;67981;51.022;-2.870;2023-05-07T04:30:59;101198.13;;;9.40;100.00
78665;BME280;67981;51.022;-2.870;2023-05-07T04:33:25;101200.81;;;9.43;100.00
78665;BME280;67981;51.022;-2.870;2023-05-07T04:35:50;101209.38;;;9.42;100.00
78665;BME280;67981;51.022;-2.870;2023-05-07T04:38:16;101203.84;;;9.33;100.00
78665;BME280;67981;51.022;-2.870;2023-05-07T04:40:41;101213.59;;;9.40;100.00
78665;BME280;67981;51.022;-2.870;2023-05-07T04:43:07;101217.78;;;9.38;100.00
78665;BME280;67981;51.022;-2.870;2023-05-07T04:45:35;101212.41;;;9.32;100.00
78665;BME280;67981;51.022;-2.870;2023-05-07T04:48:00;101211.53;;;9.31;100.00
78665;BME280;67981;51.022;-2.870;2023-05-07T04:50:25;101220.81;;;9.28;100.00
78665;BME280;67981;51.022;-2.870;2023-05-07T04:52:51;101229.44;;;9.28;100.00
78665;BME280;67981;51.022;-2.870;2023-05-07T04:55:17;101228.53;;;9.28;100.00
78665;BME280;67981;51.022;-2.870;2023-05-07T04:57:42;101233.69;;;9.28;100.00
78665;BME280;67981;51.022;-2.870;2023-05-07T05:00:08;101243.38;;;9.33;100.00
78665;BME280;67981;51.022;-2.870;2023-05-07T05:02:34;101225.41;;;9.35;100.00
78665;BME280;67981;51.022;-2.870;2023-05-07T05:05:00;101223.72;;;9.35;100.00
78665;BME280;67981;51.022;-2.870;2023-05-07T05:07:27;101241.41;;;9.48;100.00
78665;BME280;67981;51.022;-2.870;2023-05-07T05:09:53;101225.78;;;9.44;100.00
78665;BME280;67981;51.022;-2.870;2023-05-07T05:12:19;101226.69;;;9.46;100.00
78665;BME280;67981;51.022;-2.870;2023-05-07T05:14:44;101227.63;;;9.48;100.00
78665;BME280;67981;51.022;-2.870;2023-05-07T05:17:10;101228.47;;;9.47;100.00
78665;BME280;67981;51.022;-2.870;2023-05-07T05:19:35;101242.53;;;9.55;100.00
78665;BME280;67981;51.022;-2.870;2023-05-07T05:22:01;101246.00;;;9.57;100.00
78665;BME280;67981;51.022;-2.870;2023-05-07T05:24:26;101260.06;;;9.65;100.00
78665;BME280;67981;51.022;-2.870;2023-05-07T05:26:53;101263.31;;;9.81;99.48
78665;BME280;67981;51.022;-2.870;2023-05-07T05:29:18;101254.78;;;9.82;99.13
78665;BME280;67981;51.022;-2.870;2023-05-07T05:31:44;101256.78;;;9.91;99.23
78665;BME280;67981;51.022;-2.870;2023-05-07T05:34:09;101269.25;;;10.02;99.05
78665;BME280;67981;51.022;-2.870;2023-05-07T05:36:35;101269.63;;;10.12;98.18
78665;BME280;67981;51.022;-2.870;2023-05-07T05:39:00;101251.53;;;10.10;97.73
78665;BME280;67981;51.022;-2.870;2023-05-07T05:41:25;101269.31;;;10.26;97.76
78665;BME280;67981;51.022;-2.870;2023-05-07T05:43:51;101266.13;;;10.33;97.54
78665;BME280;67981;51.022;-2.870;2023-05-07T05:46:16;101257.66;;;10.36;96.95
78665;BME280;67981;51.022;-2.870;2023-05-07T05:48:41;101263.59;;;10.58;97.04
78665;BME280;67981;51.022;-2.870;2023-05-07T05:51:07;101265.16;;;10.78;96.48
78665;BME280;67981;51.022;-2.870;2023-05-07T05:53:32;101261.88;;;10.82;95.50
78665;BME280;67981;51.022;-2.870;2023-05-07T05:55:58;101258.47;;;10.83;95.50
78665;BME280;67981;51.022;-2.870;2023-05-07T05:58:23;101279.84;;;11.04;94.49
78665;BME280;67981;51.022;-2.870;2023-05-07T06:00:49;101281.78;;;11.11;94.68
78665;BME280;67981;51.022;-2.870;2023-05-07T06:03:17;101280.19;;;11.15;94.53
78665;BME280;67981;51.022;-2.870;2023-05-07T06:05:42;101292.19;;;11.13;94.65
78665;BME280;67981;51.022;-2.870;2023-05-07T06:08:07;101286.47;;;11.23;95.17
78665;BME280;67981;51.022;-2.870;2023-05-07T06:10:33;101295.25;;;11.28;94.39
78665;BME280;67981;51.022;-2.870;2023-05-07T06:12:58;101294.50;;;11.30;94.10
78665;BME280;67981;51.022;-2.870;2023-05-07T06:15:24;101290.88;;;11.25;94.03
78665;BME280;67981;51.022;-2.870;2023-05-07T06:17:49;101288.19;;;11.22;95.22
78665;BME280;67981;51.022;-2.870;2023-05-07T06:20:14;101293.66;;;11.31;94.60
78665;BME280;67981;51.022;-2.870;2023-05-07T06:22:40;101295.72;;;11.41;94.29
78665;BME280;67981;51.022;-2.870;2023-05-07T06:25:06;101292.69;;;11.55;94.21
78665;BME280;67981;51.022;-2.870;2023-05-07T06:27:31;101291.53;;;11.45;95.09
78665;BME280;67981;51.022;-2.870;2023-05-07T06:29:57;101300.41;;;11.53;94.67
78665;BME280;67981;51.022;-2.870;2023-05-07T06:32:22;101299.16;;;11.67;94.09
78665;BME280;67981;51.022;-2.870;2023-05-07T06:34:48;101302.56;;;11.66;93.78
78665;BME280;67981;51.022;-2.870;2023-05-07T06:37:13;101307.44;;;11.84;93.19
78665;BME280;67981;51.022;-2.870;2023-05-07T06:39:38;101308.19;;;11.81;93.14
78665;BME280;67981;51.022;-2.870;2023-05-07T06:42:04;101311.81;;;11.86;92.90
78665;BME280;67981;51.022;-2.870;2023-05-07T06:44:30;101321.53;;;11.93;92.31
78665;BME280;67981;51.022;-2.870;2023-05-07T06:46:56;101324.91;;;11.92;92.00
78665;BME280;67981;51.022;-2.870;2023-05-07T06:49:22;101328.63;;;12.00;92.24
78665;BME280;67981;51.022;-2.870;2023-05-07T06:51:47;101334.63;;;11.99;91.94
78665;BME280;67981;51.022;-2.870;2023-05-07T06:54:12;101318.13;;;11.96;90.96
78665;BME280;67981;51.022;-2.870;2023-05-07T06:56:38;101325.84;;;11.94;91.39
78665;BME280;67981;51.022;-2.870;2023-05-07T06:59:03;101338.19;;;12.03;91.50
78665;BME280;67981;51.022;-2.870;2023-05-07T07:01:28;101327.03;;;12.05;91.00
78665;BME280;67981;51.022;-2.870;2023-05-07T07:03:54;101328.28;;;12.18;90.54
78665;BME280;67981;51.022;-2.870;2023-05-07T07:06:19;101330.22;;;12.25;90.77
78665;BME280;67981;51.022;-2.870;2023-05-07T07:08:45;101330.28;;;12.26;90.32
78665;BME280;67981;51.022;-2.870;2023-05-07T07:11:10;101324.44;;;12.33;90.44
78665;BME280;67981;51.022;-2.870;2023-05-07T07:13:36;101328.50;;;12.55;90.19
78665;BME280;67981;51.022;-2.870;2023-05-07T07:16:02;101324.25;;;12.57;89.92
78665;BME280;67981;51.022;-2.870;2023-05-07T07:18:28;101333.03;;;12.62;89.12
78665;BME280;67981;51.022;-2.870;2023-05-07T07:20:53;101333.94;;;12.62;89.50
78665;BME280;67981;51.022;-2.870;2023-05-07T07:23:18;101334.88;;;12.66;90.02
78665;BME280;67981;51.022;-2.870;2023-05-07T07:25:44;101333.69;;;12.86;88.84
78665;BME280;67981;51.022;-2.870;2023-05-07T07:28:09;101340.78;;;12.92;88.29
78665;BME280;67981;51.022;-2.870;2023-05-07T07:30:36;101345.25;;;12.99;88.66
78665;BME280;67981;51.022;-2.870;2023-05-07T07:33:02;101344.19;;;12.91;88.65
78665;BME280;67981;51.022;-2.870;2023-05-07T07:35:34;101341.31;;;12.80;88.78
78665;BME280;67981;51.022;-2.870;2023-05-07T07:38:00;101341.72;;;12.95;88.27
78665;BME280;67981;51.022;-2.870;2023-05-07T07:40:26;101342.31;;;12.85;87.72
78665;BME280;67981;51.022;-2.870;2023-05-07T07:42:53;101346.59;;;13.14;87.76
78665;BME280;67981;51.022;-2.870;2023-05-07T07:45:18;101341.44;;;13.16;85.70
78665;BME280;67981;51.022;-2.870;2023-05-07T07:47:44;101344.59;;;13.04;86.26
78665;BME280;67981;51.022;-2.870;2023-05-07T07:50:09;101358.50;;;13.08;85.95
78665;BME280;67981;51.022;-2.870;2023-05-07T07:52:35;101362.19;;;13.16;86.27
78665;BME280;67981;51.022;-2.870;2023-05-07T07:55:01;101376.56;;;13.05;85.47
78665;BME280;67981;51.022;-2.870;2023-05-07T07:57:27;101371.78;;;12.89;86.33
78665;BME280;67981;51.022;-2.870;2023-05-07T07:59:52;101367.75;;;13.00;86.33
78665;BME280;67981;51.022;-2.870;2023-05-07T08:02:17;101370.69;;;13.12;85.94
78665;BME280;67981;51.022;-2.870;2023-05-07T08:04:43;101383.03;;;13.20;84.75
78665;BME280;67981;51.022;-2.870;2023-05-07T08:07:09;101380.38;;;13.17;84.66
78665;BME280;67981;51.022;-2.870;2023-05-07T08:09:35;101387.38;;;13.21;84.76
78665;BME280;67981;51.022;-2.870;2023-05-07T08:12:00;101387.69;;;13.33;85.80
78665;BME280;67981;51.022;-2.870;2023-05-07T08:14:26;101383.63;;;13.10;83.77
78665;BME280;67981;51.022;-2.870;2023-05-07T08:16:53;101396.41;;;13.35;85.14
78665;BME280;67981;51.022;-2.870;2023-05-07T08:19:19;101394.66;;;13.36;83.73
78665;BME280;67981;51.022;-2.870;2023-05-07T08:21:45;101397.03;;;13.27;82.78
78665;BME280;67981;51.022;-2.870;2023-05-07T08:24:12;101398.88;;;13.32;83.75
78665;BME280;67981;51.022;-2.870;2023-05-07T08:26:38;101397.50;;;13.45;81.85
78665;BME280;67981;51.022;-2.870;2023-05-07T08:29:04;101398.66;;;13.56;83.73
78665;BME280;67981;51.022;-2.870;2023-05-07T08:31:29;101409.22;;;13.63;80.64
78665;BME280;67981;51.022;-2.870;2023-05-07T08:33:55;101409.09;;;13.59;81.40
78665;BME280;67981;51.022;-2.870;2023-05-07T08:36:21;101406.59;;;13.62;81.00
78665;BME280;67981;51.022;-2.870;2023-05-07T08:38:46;101414.13;;;13.87;82.23
78665;BME280;67981;51.022;-2.870;2023-05-07T08:41:11;101412.13;;;13.75;81.48
78665;BME280;67981;51.022;-2.870;2023-05-07T08:43:37;101421.72;;;13.79;80.26
78665;BME280;67981;51.022;-2.870;2023-05-07T08:46:04;101418.47;;;13.88;81.27
78665;BME280;67981;51.022;-2.870;2023-05-07T08:48:30;101420.09;;;13.83;81.73
78665;BME280;67981;51.022;-2.870;2023-05-07T08:50:58;101415.00;;;13.87;80.33
78665;BME280;67981;51.022;-2.870;2023-05-07T08:53:23;101423.03;;;13.96;79.50
78665;BME280;67981;51.022;-2.870;2023-05-07T08:55:50;101427.06;;;13.85;80.56
78665;BME280;67981;51.022;-2.870;2023-05-07T08:58:16;101434.88;;;13.87;81.78
78665;BME280;67981;51.022;-2.870;2023-05-07T09:00:41;101432.41;;;13.57;81.66
78665;BME280;67981;51.022;-2.870;2023-05-07T09:03:07;101434.84;;;13.51;82.67
78665;BME280;67981;51.022;-2.870;2023-05-07T09:05:32;101443.31;;;13.78;82.20
78665;BME280;67981;51.022;-2.870;2023-05-07T09:07:59;101446.31;;;13.95;81.18
78665;BME280;67981;51.022;-2.870;2023-05-07T09:10:25;101442.03;;;13.97;80.92
78665;BME280;67981;51.022;-2.870;2023-05-07T09:12:51;101441.34;;;14.02;79.78
78665;BME280;67981;51.022;-2.870;2023-05-07T09:15:17;101439.13;;;14.19;79.79
78665;BME280;67981;51.022;-2.870;2023-05-07T09:17:43;101438.22;;;14.17;79.16
78665;BME280;67981;51.022;-2.870;2023-05-07T09:20:09;101434.75;;;14.16;79.67
78665;BME280;67981;51.022;-2.870;2023-05-07T09:22:37;101424.78;;;14.33;76.99
78665;BME280;67981;51.022;-2.870;2023-05-07T09:25:04;101426.75;;;14.07;78.82
78665;BME280;67981;51.022;-2.870;2023-05-07T09:27:30;101432.81;;;14.09;79.40
78665;BME280;67981;51.022;-2.870;2023-05-07T09:29:55;101437.09;;;14.06;80.00
78665;BME280;67981;51.022;-2.870;2023-05-07T09:32:21;101432.97;;;14.14;80.61
78665;BME280;67981;51.022;-2.870;2023-05-07T09:34:46;101434.41;;;14.39;79.27
78665;BME280;67981;51.022;-2.870;2023-05-07T09:37:13;101432.47;;;14.67;78.37
78665;BME280;67981;51.022;-2.870;2023-05-07T09:39:49;101431.75;;;14.76;78.52
78665;BME280;67981;51.022;-2.870;2023-05-07T09:42:14;101439.75;;;14.85;77.88
78665;BME280;67981;51.022;-2.870;2023-05-07T09:44:41;101431.06;;;14.83;76.74
78665;BME280;67981;51.022;-2.870;2023-05-07T09:47:08;101420.13;;;14.99;77.47
78665;BME280;67981;51.022;-2.870;2023-05-07T09:49:36;101429.06;;;15.13;75.78
78665;BME280;67981;51.022;-2.870;2023-05-07T09:52:04;101441.81;;;15.42;75.06
78665;BME280;67981;51.022;-2.870;2023-05-07T09:54:32;101437.09;;;15.25;75.61
78665;BME280;67981;51.022;-2.870;2023-05-07T09:57:00;101446.31;;;15.09;74.57
78665;BME280;67981;51.022;-2.870;2023-05-07T09:59:27;101435.56;;;14.91;75.36
78665;BME280;67981;51.022;-2.870;2023-05-07T10:01:57;101444.13;;;14.87;75.43
78665;BME280;67981;51.022;-2.870;2023-05-07T10:04:23;101435.56;;;14.91;76.69
78665;BME280;67981;51.022;-2.870;2023-05-07T10:06:49;101443.88;;;15.17;76.63
78665;BME280;67981;51.022;-2.870;2023-05-07T10:09:16;101447.06;;;15.45;77.20
78665;BME280;67981;51.022;-2.870;2023-05-07T10:11:42;101451.41;;;15.48;75.25
78665;BME280;67981;51.022;-2.870;2023-05-07T10:14:09;101458.34;;;15.46;75.29
78665;BME280;67981;51.022;-2.870;2023-05-07T10:16:36;101458.88;;;15.30;75.44
78665;BME280;67981;51.022;-2.870;2023-05-07T10:19:05;101458.22;;;15.40;76.90
78665;BME280;67981;51.022;-2.870;2023-05-07T10:21:36;101466.38;;;15.16;75.91
78665;BME280;67981;51.022;-2.870;2023-05-07T10:24:09;101470.63;;;15.11;77.58
78665;BME280;67981;51.022;-2.870;2023-05-07T10:26:40;101471.81;;;15.27;77.17
78665;BME280;67981;51.022;-2.870;2023-05-07T10:35:10;101464.09;;;14.88;78.15
78665;BME280;67981;51.022;-2.870;2023-05-07T10:37:39;101467.59;;;14.90;77.25
78665;BME280;67981;51.022;-2.870;2023-05-07T10:40:06;101470.72;;;15.17;75.82
78665;BME280;67981;51.022;-2.870;2023-05-07T10:42:32;101463.06;;;15.23;76.50
78665;BME280;67981;51.022;-2.870;2023-05-07T10:44:58;101464.78;;;15.23;76.08
78665;BME280;67981;51.022;-2.870;2023-05-07T10:48:14;101464.19;;;15.36;74.86
78665;BME280;67981;51.022;-2.870;2023-05-07T10:50:42;101477.13;;;15.78;73.76
78665;BME280;67981;51.022;-2.870;2023-05-07T10:55:43;101478.22;;;15.92;72.72
78665;BME280;67981;51.022;-2.870;2023-05-07T10:58:24;101480.78;;;15.89;72.82
78665;BME280;67981;51.022;-2.870;2023-05-07T11:00:58;101479.66;;;15.73;71.76
78665;BME280;67981;51.022;-2.870;2023-05-07T11:03:25;101487.47;;;15.73;73.48
78665;BME280;67981;51.022;-2.870;2023-05-07T11:06:10;101493.34;;;15.63;73.67
78665;BME280;67981;51.022;-2.870;2023-05-07T11:08:55;101485.28;;;15.99;73.88
78665;BME280;67981;51.022;-2.870;2023-05-07T11:11:49;101474.91;;;16.00;72.71
78665;BME280;67981;51.022;-2.870;2023-05-07T11:17:06;101483.81;;;16.14;69.69
78665;BME280;67981;51.022;-2.870;2023-05-07T11:19:49;101481.19;;;16.14;71.25
78665;BME280;67981;51.022;-2.870;2023-05-07T11:24:55;101483.31;;;15.84;71.19
78665;BME280;67981;51.022;-2.870;2023-05-07T11:27:24;101484.06;;;15.79;73.80
78665;BME280;67981;51.022;-2.870;2023-05-07T11:29:50;101489.53;;;15.94;72.00
78665;BME280;67981;51.022;-2.870;2023-05-07T11:32:15;101490.28;;;15.87;70.58
78665;BME280;67981;51.022;-2.870;2023-05-07T11:34:47;101481.84;;;16.01;72.13
78665;BME280;67981;51.022;-2.870;2023-05-07T11:37:17;101493.19;;;16.05;71.46
78665;BME280;67981;51.022;-2.870;2023-05-07T11:39:42;101493.69;;;15.83;72.79
78665;BME280;67981;51.022;-2.870;2023-05-07T11:42:27;101497.25;;;15.86;72.53
78665;BME280;67981;51.022;-2.870;2023-05-07T11:44:52;101505.22;;;15.97;73.32
78665;BME280;67981;51.022;-2.870;2023-05-07T11:47:18;101511.56;;;15.65;74.05
78665;BME280;67981;51.022;-2.870;2023-05-07T11:49:48;101516.28;;;15.39;74.69
78665;BME280;67981;51.022;-2.870;2023-05-07T11:52:18;101520.16;;;15.59;74.98
78665;BME280;67981;51.022;-2.870;2023-05-07T11:54:55;101515.63;;;15.49;74.45
78665;BME280;67981;51.022;-2.870;2023-05-07T11:57:21;101513.34;;;15.66;73.97
78665;BME280;67981;51.022;-2.870;2023-05-07T11:59:47;101519.19;;;15.54;74.13
78665;BME280;67981;51.022;-2.870;2023-05-07T12:02:17;101523.63;;;15.59;74.07
78665;BME280;67981;51.022;-2.870;2023-05-07T12:04:44;101523.03;;;15.74;73.68
78665;BME280;67981;51.022;-2.870;2023-05-07T12:07:16;101519.63;;;15.77;73.54
78665;BME280;67981;51.022;-2.870;2023-05-07T12:09:42;101531.06;;;15.86;73.57
78665;BME280;67981;51.022;-2.870;2023-05-07T12:12:08;101515.84;;;16.09;73.27
78665;BME280;67981;51.022;-2.870;2023-05-07T12:14:41;101517.59;;;16.10;71.69
78665;BME280;67981;51.022;-2.870;2023-05-07T12:17:07;101521.88;;;16.08;71.37
78665;BME280;67981;51.022;-2.870;2023-05-07T12:19:34;101509.63;;;15.99;70.13
78665;BME280;67981;51.022;-2.870;2023-05-07T12:22:00;101508.63;;;16.45;70.37
78665;BME280;67981;51.022;-2.870;2023-05-07T12:24:26;101520.91;;;16.50;69.53
78665;BME280;67981;51.022;-2.870;2023-05-07T12:26:51;101515.03;;;16.65;67.88
78665;BME280;67981;51.022;-2.870;2023-05-07T12:29:17;101516.03;;;16.73;67.97
78665;BME280;67981;51.022;-2.870;2023-05-07T12:31:46;101514.03;;;16.55;67.63
78665;BME280;67981;51.022;-2.870;2023-05-07T12:34:11;101514.69;;;16.44;68.61
78665;BME280;67981;51.022;-2.870;2023-05-07T12:36:38;101520.91;;;16.52;67.43
78665;BME280;67981;51.022;-2.870;2023-05-07T12:39:07;101516.34;;;16.39;67.06
78665;BME280;67981;51.022;-2.870;2023-05-07T12:41:52;101519.41;;;16.67;66.15
78665;BME280;67981;51.022;-2.870;2023-05-07T12:44:18;101510.78;;;16.71;66.74
78665;BME280;67981;51.022;-2.870;2023-05-07T12:46:44;101524.81;;;16.81;66.11
78665;BME280;67981;51.022;-2.870;2023-05-07T12:49:09;101525.44;;;17.26;65.30
78665;BME280;67981;51.022;-2.870;2023-05-07T12:51:35;101514.81;;;17.13;64.55